sensor_id;sensor_type;location;lat;lon;timestamp;P1;durP1;ratioP1;P2;durP2;ratioP2
43670;SDS011;29267;50.906;7.248;2024-01-30T00:01:52;13.68;;;8.00;;
43670;SDS011;29267;50.906;7.248;2024-01-30T00:04:17;18.67;;;8.25;;
43670;SDS011;29267;50.906;7.248;2024-01-30T00:06:43;15.68;;;7.20;;
43670;SDS011;29267;50.906;7.248;2024-01-30T00:09:09;17.17;;;8.05;;
43670;SDS011;29267;50.906;7.248;2024-01-30T00:11:36;25.80;;;8.55;;
43670;SDS011;29267;50.906;7.248;2024-01-30T00:14:02;14.18;;;7.70;;
43670;SDS011;29267;50.906;7.248;2024-01-30T00:16:28;11.98;;;7.43;;
43670;SDS011;29267;50.906;7.248;2024-01-30T00:18:54;17.10;;;7.82;;
43670;SDS011;29267;50.906;7.248;2024-01-30T00:21:20;17.00;;;7.93;;
43670;SDS011;29267;50.906;7.248;2024-01-30T00:23:46;15.07;;;7.70;;
43670;SDS011;29267;50.906;7.248;2024-01-30T00:26:12;22.20;;;8.57;;
43670;SDS011;29267;50.906;7.248;2024-01-30T00:28:38;15.30;;;8.18;;
43670;SDS011;29267;50.906;7.248;2024-01-30T00:31:03;17.98;;;8.35;;
43670;SDS011;29267;50.906;7.248;2024-01-30T00:33:29;14.10;;;7.68;;
43670;SDS011;29267;50.906;7.248;2024-01-30T00:35:55;16.80;;;7.60;;
43670;SDS011;29267;50.906;7.248;2024-01-30T00:38:21;17.83;;;8.25;;
43670;SDS011;29267;50.906;7.248;2024-01-30T00:40:47;15.43;;;8.80;;
43670;SDS011;29267;50.906;7.248;2024-01-30T00:43:13;15.23;;;8.35;;
43670;SDS011;29267;50.906;7.248;2024-01-30T00:45:39;14.82;;;7.47;;
43670;SDS011;29267;50.906;7.248;2024-01-30T00:48:04;16.95;;;9.05;;
43670;SDS011;29267;50.906;7.248;2024-01-30T00:50:30;16.83;;;8.38;;
43670;SDS011;29267;50.906;7.248;2024-01-30T00:52:56;18.48;;;7.63;;
43670;SDS011;29267;50.906;7.248;2024-01-30T00:55:22;17.27;;;8.30;;
43670;SDS011;29267;50.906;7.248;2024-01-30T00:57:47;20.02;;;8.82;;
43670;SDS011;29267;50.906;7.248;2024-01-30T01:00:13;21.33;;;9.07;;
43670;SDS011;29267;50.906;7.248;2024-01-30T01:02:42;18.45;;;8.32;;
43670;SDS011;29267;50.906;7.248;2024-01-30T01:05:08;14.93;;;7.22;;
43670;SDS011;29267;50.906;7.248;2024-01-30T01:07:34;14.53;;;8.10;;
43670;SDS011;29267;50.906;7.248;2024-01-30T01:10:00;12.65;;;8.30;;
43670;SDS011;29267;50.906;7.248;2024-01-30T01:12:25;15.10;;;8.38;;
43670;SDS011;29267;50.906;7.248;2024-01-30T01:14:51;15.50;;;7.75;;
43670;SDS011;29267;50.906;7.248;2024-01-30T01:17:17;15.38;;;8.82;;
43670;SDS011;29267;50.906;7.248;2024-01-30T01:19:43;16.88;;;7.75;;
43670;SDS011;29267;50.906;7.248;2024-01-30T01:22:09;16.23;;;9.27;;
43670;SDS011;29267;50.906;7.248;2024-01-30T01:24:35;18.70;;;8.25;;
43670;SDS011;29267;50.906;7.248;2024-01-30T01:27:01;17.17;;;8.63;;
43670;SDS011;29267;50.906;7.248;2024-01-30T01:29:27;17.27;;;8.02;;
43670;SDS011;29267;50.906;7.248;2024-01-30T01:31:54;16.65;;;8.00;;
43670;SDS011;29267;50.906;7.248;2024-01-30T01:34:21;16.48;;;8.48;;
43670;SDS011;29267;50.906;7.248;2024-01-30T01:36:46;16.67;;;7.90;;
43670;SDS011;29267;50.906;7.248;2024-01-30T01:39:12;22.00;;;8.68;;
43670;SDS011;29267;50.906;7.248;2024-01-30T01:41:38;14.65;;;8.13;;
43670;SDS011;29267;50.906;7.248;2024-01-30T01:44:03;14.77;;;7.55;;
43670;SDS011;29267;50.906;7.248;2024-01-30T01:46:30;15.27;;;7.40;;
43670;SDS011;29267;50.906;7.248;2024-01-30T01:48:58;19.55;;;8.48;;
43670;SDS011;29267;50.906;7.248;2024-01-30T01:51:25;15.55;;;7.68;;
43670;SDS011;29267;50.906;7.248;2024-01-30T01:53:53;19.25;;;8.02;;
43670;SDS011;29267;50.906;7.248;2024-01-30T01:56:19;16.58;;;7.70;;
43670;SDS011;29267;50.906;7.248;2024-01-30T01:58:46;17.23;;;7.43;;
43670;SDS011;29267;50.906;7.248;2024-01-30T02:01:14;20.95;;;8.57;;
43670;SDS011;29267;50.906;7.248;2024-01-30T02:03:43;17.77;;;7.40;;
43670;SDS011;29267;50.906;7.248;2024-01-30T02:06:10;16.65;;;7.20;;
43670;SDS011;29267;50.906;7.248;2024-01-30T02:08:37;14.60;;;7.40;;
43670;SDS011;29267;50.906;7.248;2024-01-30T02:11:03;12.82;;;6.57;;
43670;SDS011;29267;50.906;7.248;2024-01-30T02:13:29;11.35;;;7.28;;
43670;SDS011;29267;50.906;7.248;2024-01-30T02:15:54;14.95;;;6.93;;
43670;SDS011;29267;50.906;7.248;2024-01-30T02:18:20;21.35;;;7.90;;
43670;SDS011;29267;50.906;7.248;2024-01-30T02:20:48;17.77;;;7.68;;
43670;SDS011;29267;50.906;7.248;2024-01-30T02:23:18;21.80;;;6.85;;
43670;SDS011;29267;50.906;7.248;2024-01-30T02:25:45;18.80;;;7.40;;
43670;SDS011;29267;50.906;7.248;2024-01-30T02:28:11;18.02;;;7.07;;
43670;SDS011;29267;50.906;7.248;2024-01-30T02:30:37;13.00;;;6.57;;
43670;SDS011;29267;50.906;7.248;2024-01-30T02:33:07;14.10;;;7.63;;
43670;SDS011;29267;50.906;7.248;2024-01-30T02:35:33;12.32;;;7.00;;
43670;SDS011;29267;50.906;7.248;2024-01-30T02:37:59;10.77;;;6.43;;
43670;SDS011;29267;50.906;7.248;2024-01-30T02:40:24;13.35;;;7.10;;
43670;SDS011;29267;50.906;7.248;2024-01-30T02:42:50;16.88;;;7.53;;
43670;SDS011;29267;50.906;7.248;2024-01-30T02:45:16;15.77;;;7.25;;
43670;SDS011;29267;50.906;7.248;2024-01-30T02:47:42;14.85;;;7.22;;
43670;SDS011;29267;50.906;7.248;2024-01-30T02:50:07;13.75;;;6.85;;
43670;SDS011;29267;50.906;7.248;2024-01-30T02:52:33;12.10;;;6.63;;
43670;SDS011;29267;50.906;7.248;2024-01-30T02:54:59;15.90;;;6.70;;
43670;SDS011;29267;50.906;7.248;2024-01-30T02:57:25;13.35;;;7.32;;
43670;SDS011;29267;50.906;7.248;2024-01-30T02:59:51;21.08;;;7.13;;
43670;SDS011;29267;50.906;7.248;2024-01-30T03:02:16;17.25;;;7.10;;
43670;SDS011;29267;50.906;7.248;2024-01-30T03:04:42;16.13;;;7.38;;
43670;SDS011;29267;50.906;7.248;2024-01-30T03:07:08;13.98;;;6.70;;
43670;SDS011;29267;50.906;7.248;2024-01-30T03:09:34;14.15;;;6.47;;
43670;SDS011;29267;50.906;7.248;2024-01-30T03:11:59;12.23;;;6.93;;
43670;SDS011;29267;50.906;7.248;2024-01-30T03:14:25;16.05;;;7.82;;
43670;SDS011;29267;50.906;7.248;2024-01-30T03:16:51;14.32;;;6.70;;
43670;SDS011;29267;50.906;7.248;2024-01-30T03:19:17;14.13;;;6.00;;
43670;SDS011;29267;50.906;7.248;2024-01-30T03:21:43;14.15;;;7.65;;
43670;SDS011;29267;50.906;7.248;2024-01-30T03:24:09;18.42;;;8.82;;
43670;SDS011;29267;50.906;7.248;2024-01-30T03:26:35;19.50;;;7.70;;
43670;SDS011;29267;50.906;7.248;2024-01-30T03:29:00;16.17;;;7.10;;
43670;SDS011;29267;50.906;7.248;2024-01-30T03:31:26;12.95;;;6.85;;
43670;SDS011;29267;50.906;7.248;2024-01-30T03:33:52;16.17;;;6.75;;
43670;SDS011;29267;50.906;7.248;2024-01-30T03:36:17;15.23;;;6.78;;
43670;SDS011;29267;50.906;7.248;2024-01-30T03:38:43;19.55;;;7.22;;
43670;SDS011;29267;50.906;7.248;2024-01-30T03:41:09;17.27;;;6.80;;
43670;SDS011;29267;50.906;7.248;2024-01-30T03:43:35;14.65;;;6.70;;
43670;SDS011;29267;50.906;7.248;2024-01-30T03:46:01;14.77;;;7.70;;
43670;SDS011;29267;50.906;7.248;2024-01-30T03:48:28;13.63;;;7.72;;
43670;SDS011;29267;50.906;7.248;2024-01-30T03:50:54;24.45;;;7.65;;
43670;SDS011;29267;50.906;7.248;2024-01-30T03:53:20;11.48;;;7.03;;
43670;SDS011;29267;50.906;7.248;2024-01-30T03:55:45;14.27;;;7.57;;
43670;SDS011;29267;50.906;7.248;2024-01-30T03:58:11;13.27;;;7.20;;
43670;SDS011;29267;50.906;7.248;2024-01-30T04:00:37;13.18;;;6.97;;
43670;SDS011;29267;50.906;7.248;2024-01-30T04:03:02;12.27;;;7.00;;
43670;SDS011;29267;50.906;7.248;2024-01-30T04:05:28;22.30;;;7.40;;
43670;SDS011;29267;50.906;7.248;2024-01-30T04:07:54;10.52;;;6.25;;
43670;SDS011;29267;50.906;7.248;2024-01-30T04:10:19;19.13;;;7.32;;
43670;SDS011;29267;50.906;7.248;2024-01-30T04:12:45;16.70;;;7.15;;
43670;SDS011;29267;50.906;7.248;2024-01-30T04:15:11;11.65;;;6.38;;
43670;SDS011;29267;50.906;7.248;2024-01-30T04:17:38;14.05;;;6.95;;
43670;SDS011;29267;50.906;7.248;2024-01-30T04:20:04;12.13;;;6.22;;
43670;SDS011;29267;50.906;7.248;2024-01-30T04:22:30;13.77;;;6.78;;
43670;SDS011;29267;50.906;7.248;2024-01-30T04:24:56;11.82;;;6.32;;
43670;SDS011;29267;50.906;7.248;2024-01-30T04:27:22;13.38;;;7.28;;
43670;SDS011;29267;50.906;7.248;2024-01-30T04:29:47;14.40;;;7.93;;
43670;SDS011;29267;50.906;7.248;2024-01-30T04:32:13;12.70;;;7.20;;
43670;SDS011;29267;50.906;7.248;2024-01-30T04:34:39;17.65;;;7.97;;
43670;SDS011;29267;50.906;7.248;2024-01-30T04:37:04;18.02;;;7.70;;
43670;SDS011;29267;50.906;7.248;2024-01-30T04:39:30;15.38;;;7.68;;
43670;SDS011;29267;50.906;7.248;2024-01-30T04:41:57;17.33;;;7.75;;
43670;SDS011;29267;50.906;7.248;2024-01-30T04:44:24;16.50;;;6.90;;
43670;SDS011;29267;50.906;7.248;2024-01-30T04:46:49;14.68;;;6.93;;
43670;SDS011;29267;50.906;7.248;2024-01-30T04:49:15;12.02;;;7.28;;
43670;SDS011;29267;50.906;7.248;2024-01-30T04:51:41;12.45;;;6.43;;
43670;SDS011;29267;50.906;7.248;2024-01-30T04:54:06;16.02;;;6.90;;
43670;SDS011;29267;50.906;7.248;2024-01-30T04:56:32;13.55;;;6.13;;
43670;SDS011;29267;50.906;7.248;2024-01-30T04:58:57;13.52;;;7.43;;
43670;SDS011;29267;50.906;7.248;2024-01-30T05:01:23;15.73;;;7.63;;
43670;SDS011;29267;50.906;7.248;2024-01-30T05:03:48;15.00;;;6.45;;
43670;SDS011;29267;50.906;7.248;2024-01-30T05:06:23;14.40;;;7.80;;
43670;SDS011;29267;50.906;7.248;2024-01-30T05:08:49;15.05;;;8.23;;
43670;SDS011;29267;50.906;7.248;2024-01-30T05:11:15;15.07;;;7.28;;
43670;SDS011;29267;50.906;7.248;2024-01-30T05:13:40;16.45;;;6.40;;
43670;SDS011;29267;50.906;7.248;2024-01-30T05:16:06;17.48;;;7.32;;
43670;SDS011;29267;50.906;7.248;2024-01-30T05:18:32;17.45;;;7.20;;
43670;SDS011;29267;50.906;7.248;2024-01-30T05:20:59;15.90;;;8.05;;
43670;SDS011;29267;50.906;7.248;2024-01-30T05:23:24;14.52;;;7.72;;
43670;SDS011;29267;50.906;7.248;2024-01-30T05:25:50;14.43;;;7.30;;
43670;SDS011;29267;50.906;7.248;2024-01-30T05:28:16;13.98;;;7.15;;
43670;SDS011;29267;50.906;7.248;2024-01-30T05:30:41;14.43;;;7.32;;
43670;SDS011;29267;50.906;7.248;2024-01-30T05:33:07;16.73;;;6.75;;
43670;SDS011;29267;50.906;7.248;2024-01-30T05:35:33;17.20;;;8.15;;
43670;SDS011;29267;50.906;7.248;2024-01-30T05:37:58;12.85;;;7.05;;
43670;SDS011;29267;50.906;7.248;2024-01-30T05:40:24;13.60;;;6.93;;
43670;SDS011;29267;50.906;7.248;2024-01-30T05:42:49;18.50;;;8.13;;
43670;SDS011;29267;50.906;7.248;2024-01-30T05:45:15;19.45;;;8.18;;
43670;SDS011;29267;50.906;7.248;2024-01-30T05:47:41;17.35;;;8.00;;
43670;SDS011;29267;50.906;7.248;2024-01-30T05:50:06;16.10;;;7.28;;
43670;SDS011;29267;50.906;7.248;2024-01-30T05:52:32;15.88;;;7.00;;
43670;SDS011;29267;50.906;7.248;2024-01-30T05:54:58;15.48;;;6.68;;
43670;SDS011;29267;50.906;7.248;2024-01-30T05:57:23;17.08;;;7.35;;
43670;SDS011;29267;50.906;7.248;2024-01-30T05:59:49;20.42;;;8.52;;
43670;SDS011;29267;50.906;7.248;2024-01-30T06:02:16;18.73;;;8.45;;
43670;SDS011;29267;50.906;7.248;2024-01-30T06:04:42;15.57;;;7.03;;
43670;SDS011;29267;50.906;7.248;2024-01-30T06:07:09;17.45;;;8.38;;
43670;SDS011;29267;50.906;7.248;2024-01-30T06:09:35;25.25;;;9.10;;
43670;SDS011;29267;50.906;7.248;2024-01-30T06:12:00;21.20;;;8.15;;
43670;SDS011;29267;50.906;7.248;2024-01-30T06:14:26;10.20;;;6.53;;
43670;SDS011;29267;50.906;7.248;2024-01-30T06:16:51;15.48;;;8.10;;
43670;SDS011;29267;50.906;7.248;2024-01-30T06:19:17;15.82;;;6.93;;
43670;SDS011;29267;50.906;7.248;2024-01-30T06:21:42;12.02;;;6.85;;
43670;SDS011;29267;50.906;7.248;2024-01-30T06:24:10;15.80;;;7.50;;
43670;SDS011;29267;50.906;7.248;2024-01-30T06:26:35;12.48;;;7.53;;
43670;SDS011;29267;50.906;7.248;2024-01-30T06:29:01;18.45;;;7.00;;
43670;SDS011;29267;50.906;7.248;2024-01-30T06:31:26;14.63;;;7.75;;
43670;SDS011;29267;50.906;7.248;2024-01-30T06:33:52;14.05;;;7.13;;
43670;SDS011;29267;50.906;7.248;2024-01-30T06:36:18;14.10;;;7.03;;
43670;SDS011;29267;50.906;7.248;2024-01-30T06:38:43;14.95;;;7.50;;
43670;SDS011;29267;50.906;7.248;2024-01-30T06:41:09;12.70;;;7.47;;
43670;SDS011;29267;50.906;7.248;2024-01-30T06:43:35;12.52;;;7.22;;
43670;SDS011;29267;50.906;7.248;2024-01-30T06:46:00;16.58;;;8.23;;
43670;SDS011;29267;50.906;7.248;2024-01-30T06:48:26;14.73;;;6.85;;
43670;SDS011;29267;50.906;7.248;2024-01-30T06:50:54;16.95;;;8.10;;
43670;SDS011;29267;50.906;7.248;2024-01-30T06:53:22;19.02;;;8.48;;
43670;SDS011;29267;50.906;7.248;2024-01-30T06:55:48;13.57;;;7.47;;
43670;SDS011;29267;50.906;7.248;2024-01-30T06:58:13;18.27;;;6.97;;
43670;SDS011;29267;50.906;7.248;2024-01-30T07:00:39;15.88;;;7.60;;
43670;SDS011;29267;50.906;7.248;2024-01-30T07:03:05;19.10;;;7.90;;
43670;SDS011;29267;50.906;7.248;2024-01-30T07:05:31;19.65;;;7.93;;
43670;SDS011;29267;50.906;7.248;2024-01-30T07:07:57;25.13;;;8.80;;
43670;SDS011;29267;50.906;7.248;2024-01-30T07:10:22;12.15;;;7.50;;
43670;SDS011;29267;50.906;7.248;2024-01-30T07:12:48;22.80;;;8.63;;
43670;SDS011;29267;50.906;7.248;2024-01-30T07:15:14;17.90;;;8.20;;
43670;SDS011;29267;50.906;7.248;2024-01-30T07:17:42;17.05;;;7.97;;
43670;SDS011;29267;50.906;7.248;2024-01-30T07:20:08;13.48;;;7.32;;
43670;SDS011;29267;50.906;7.248;2024-01-30T07:22:34;13.57;;;6.93;;
43670;SDS011;29267;50.906;7.248;2024-01-30T07:25:00;15.00;;;8.77;;
43670;SDS011;29267;50.906;7.248;2024-01-30T07:27:25;20.00;;;10.30;;
43670;SDS011;29267;50.906;7.248;2024-01-30T07:29:51;17.38;;;9.40;;
43670;SDS011;29267;50.906;7.248;2024-01-30T07:32:17;44.58;;;20.58;;
43670;SDS011;29267;50.906;7.248;2024-01-30T07:34:43;45.45;;;20.30;;
43670;SDS011;29267;50.906;7.248;2024-01-30T07:37:09;44.80;;;19.88;;
43670;SDS011;29267;50.906;7.248;2024-01-30T07:39:35;30.48;;;15.82;;
43670;SDS011;29267;50.906;7.248;2024-01-30T07:42:01;25.73;;;10.90;;
43670;SDS011;29267;50.906;7.248;2024-01-30T07:44:27;18.15;;;9.02;;
43670;SDS011;29267;50.906;7.248;2024-01-30T07:46:53;18.48;;;7.95;;
43670;SDS011;29267;50.906;7.248;2024-01-30T07:49:19;17.60;;;7.78;;
43670;SDS011;29267;50.906;7.248;2024-01-30T07:51:45;22.23;;;9.23;;
43670;SDS011;29267;50.906;7.248;2024-01-30T07:54:11;22.23;;;6.93;;
43670;SDS011;29267;50.906;7.248;2024-01-30T08:03:24;17.30;;;7.18;;
43670;SDS011;29267;50.906;7.248;2024-01-30T08:05:49;15.05;;;6.38;;
43670;SDS011;29267;50.906;7.248;2024-01-30T08:08:15;13.40;;;7.82;;
43670;SDS011;29267;50.906;7.248;2024-01-30T08:10:40;17.00;;;6.72;;
43670;SDS011;29267;50.906;7.248;2024-01-30T08:13:06;17.80;;;7.22;;
43670;SDS011;29267;50.906;7.248;2024-01-30T08:15:33;16.17;;;7.20;;
43670;SDS011;29267;50.906;7.248;2024-01-30T08:17:59;13.20;;;6.60;;
43670;SDS011;29267;50.906;7.248;2024-01-30T08:20:25;13.10;;;6.30;;
43670;SDS011;29267;50.906;7.248;2024-01-30T08:22:51;13.40;;;6.20;;
43670;SDS011;29267;50.906;7.248;2024-01-30T08:25:17;12.15;;;6.65;;
43670;SDS011;29267;50.906;7.248;2024-01-30T08:27:42;13.02;;;6.72;;
43670;SDS011;29267;50.906;7.248;2024-01-30T08:30:08;16.02;;;6.60;;
43670;SDS011;29267;50.906;7.248;2024-01-30T08:32:34;10.05;;;5.97;;
43670;SDS011;29267;50.906;7.248;2024-01-30T08:35:00;9.88;;;5.18;;
43670;SDS011;29267;50.906;7.248;2024-01-30T08:37:28;10.50;;;5.65;;
43670;SDS011;29267;50.906;7.248;2024-01-30T08:39:54;17.48;;;5.97;;
43670;SDS011;29267;50.906;7.248;2024-01-30T08:42:20;16.52;;;6.40;;
43670;SDS011;29267;50.906;7.248;2024-01-30T08:44:47;11.70;;;6.47;;
43670;SDS011;29267;50.906;7.248;2024-01-30T08:47:14;9.55;;;5.20;;
43670;SDS011;29267;50.906;7.248;2024-01-30T08:49:41;14.35;;;5.53;;
43670;SDS011;29267;50.906;7.248;2024-01-30T08:52:09;10.70;;;6.30;;
43670;SDS011;29267;50.906;7.248;2024-01-30T08:54:37;9.93;;;5.78;;
43670;SDS011;29267;50.906;7.248;2024-01-30T08:57:03;9.85;;;5.93;;
43670;SDS011;29267;50.906;7.248;2024-01-30T08:59:29;10.73;;;6.18;;
43670;SDS011;29267;50.906;7.248;2024-01-30T09:01:55;11.15;;;5.90;;
43670;SDS011;29267;50.906;7.248;2024-01-30T09:04:23;18.45;;;6.30;;
43670;SDS011;29267;50.906;7.248;2024-01-30T09:06:49;20.35;;;6.40;;
43670;SDS011;29267;50.906;7.248;2024-01-30T09:09:15;10.10;;;6.00;;
43670;SDS011;29267;50.906;7.248;2024-01-30T09:11:40;14.02;;;5.70;;
43670;SDS011;29267;50.906;7.248;2024-01-30T09:14:06;12.70;;;5.93;;
43670;SDS011;29267;50.906;7.248;2024-01-30T09:16:32;19.88;;;7.95;;
43670;SDS011;29267;50.906;7.248;2024-01-30T09:18:57;18.90;;;8.57;;
43670;SDS011;29267;50.906;7.248;2024-01-30T09:21:23;18.63;;;9.48;;
43670;SDS011;29267;50.906;7.248;2024-01-30T09:23:49;14.40;;;6.85;;
43670;SDS011;29267;50.906;7.248;2024-01-30T09:26:14;15.57;;;6.47;;
43670;SDS011;29267;50.906;7.248;2024-01-30T09:28:40;10.18;;;5.40;;
43670;SDS011;29267;50.906;7.248;2024-01-30T09:31:10;16.67;;;5.88;;
43670;SDS011;29267;50.906;7.248;2024-01-30T09:33:37;10.73;;;5.38;;
43670;SDS011;29267;50.906;7.248;2024-01-30T09:36:04;9.25;;;4.70;;
43670;SDS011;29267;50.906;7.248;2024-01-30T09:38:30;10.45;;;5.10;;
43670;SDS011;29267;50.906;7.248;2024-01-30T09:40:56;18.63;;;5.50;;
43670;SDS011;29267;50.906;7.248;2024-01-30T09:43:28;13.27;;;5.68;;
43670;SDS011;29267;50.906;7.248;2024-01-30T09:45:58;11.60;;;6.07;;
43670;SDS011;29267;50.906;7.248;2024-01-30T09:48:27;13.65;;;5.18;;
43670;SDS011;29267;50.906;7.248;2024-01-30T09:50:53;12.50;;;5.22;;
43670;SDS011;29267;50.906;7.248;2024-01-30T09:53:19;11.98;;;5.18;;
43670;SDS011;29267;50.906;7.248;2024-01-30T09:55:46;11.88;;;5.80;;
43670;SDS011;29267;50.906;7.248;2024-01-30T09:58:12;12.90;;;6.30;;
43670;SDS011;29267;50.906;7.248;2024-01-30T10:00:38;12.63;;;5.53;;
43670;SDS011;29267;50.906;7.248;2024-01-30T10:03:04;10.73;;;5.90;;
43670;SDS011;29267;50.906;7.248;2024-01-30T10:05:30;9.20;;;5.43;;
43670;SDS011;29267;50.906;7.248;2024-01-30T10:07:58;12.02;;;5.25;;
43670;SDS011;29267;50.906;7.248;2024-01-30T10:10:24;12.48;;;5.15;;
43670;SDS011;29267;50.906;7.248;2024-01-30T10:12:50;12.05;;;6.10;;
43670;SDS011;29267;50.906;7.248;2024-01-30T10:15:17;9.82;;;4.70;;
43670;SDS011;29267;50.906;7.248;2024-01-30T10:17:44;10.20;;;5.38;;
43670;SDS011;29267;50.906;7.248;2024-01-30T10:20:11;10.65;;;6.15;;
43670;SDS011;29267;50.906;7.248;2024-01-30T10:22:36;12.23;;;5.85;;
43670;SDS011;29267;50.906;7.248;2024-01-30T10:25:02;12.07;;;5.45;;
43670;SDS011;29267;50.906;7.248;2024-01-30T10:27:28;12.07;;;4.82;;
43670;SDS011;29267;50.906;7.248;2024-01-30T10:29:54;9.77;;;5.65;;
43670;SDS011;29267;50.906;7.248;2024-01-30T10:32:20;16.17;;;7.85;;
43670;SDS011;29267;50.906;7.248;2024-01-30T10:34:46;13.57;;;6.03;;
43670;SDS011;29267;50.906;7.248;2024-01-30T10:37:12;12.82;;;5.38;;
43670;SDS011;29267;50.906;7.248;2024-01-30T10:39:41;11.23;;;5.35;;
43670;SDS011;29267;50.906;7.248;2024-01-30T10:42:11;10.38;;;4.82;;
43670;SDS011;29267;50.906;7.248;2024-01-30T10:47:30;10.73;;;6.43;;
43670;SDS011;29267;50.906;7.248;2024-01-30T10:49:56;12.18;;;5.15;;
43670;SDS011;29267;50.906;7.248;2024-01-30T10:52:24;13.85;;;5.38;;
43670;SDS011;29267;50.906;7.248;2024-01-30T10:54:51;11.15;;;5.53;;
43670;SDS011;29267;50.906;7.248;2024-01-30T10:57:19;9.52;;;5.57;;
43670;SDS011;29267;50.906;7.248;2024-01-30T10:59:47;8.07;;;4.97;;
43670;SDS011;29267;50.906;7.248;2024-01-30T11:02:14;8.95;;;5.05;;
43670;SDS011;29267;50.906;7.248;2024-01-30T11:04:40;11.95;;;5.55;;
43670;SDS011;29267;50.906;7.248;2024-01-30T11:07:23;8.90;;;5.40;;
43670;SDS011;29267;50.906;7.248;2024-01-30T11:12:28;9.00;;;4.95;;
43670;SDS011;29267;50.906;7.248;2024-01-30T11:15:05;8.75;;;5.32;;
43670;SDS011;29267;50.906;7.248;2024-01-30T11:22:44;13.00;;;4.82;;
43670;SDS011;29267;50.906;7.248;2024-01-30T11:25:14;8.55;;;3.80;;
43670;SDS011;29267;50.906;7.248;2024-01-30T11:27:45;8.50;;;4.70;;
43670;SDS011;29267;50.906;7.248;2024-01-30T11:30:30;8.70;;;4.60;;
43670;SDS011;29267;50.906;7.248;2024-01-30T11:33:00;10.35;;;5.25;;
43670;SDS011;29267;50.906;7.248;2024-01-30T11:35:27;11.30;;;6.65;;
43670;SDS011;29267;50.906;7.248;2024-01-30T11:37:54;11.77;;;6.35;;
43670;SDS011;29267;50.906;7.248;2024-01-30T11:40:22;10.80;;;6.07;;
43670;SDS011;29267;50.906;7.248;2024-01-30T11:42:49;13.77;;;6.43;;
43670;SDS011;29267;50.906;7.248;2024-01-30T11:45:17;12.23;;;6.88;;
43670;SDS011;29267;50.906;7.248;2024-01-30T11:47:42;8.32;;;5.00;;
43670;SDS011;29267;50.906;7.248;2024-01-30T11:50:08;11.02;;;5.50;;
43670;SDS011;29267;50.906;7.248;2024-01-30T11:52:35;9.63;;;5.53;;
43670;SDS011;29267;50.906;7.248;2024-01-30T11:55:01;8.57;;;5.25;;
43670;SDS011;29267;50.906;7.248;2024-01-30T11:57:27;13.15;;;4.75;;
43670;SDS011;29267;50.906;7.248;2024-01-30T11:59:53;12.35;;;6.00;;
43670;SDS011;29267;50.906;7.248;2024-01-30T12:02:19;9.85;;;4.78;;
43670;SDS011;29267;50.906;7.248;2024-01-30T12:04:44;13.30;;;6.22;;
43670;SDS011;29267;50.906;7.248;2024-01-30T12:07:10;7.57;;;5.30;;
43670;SDS011;29267;50.906;7.248;2024-01-30T12:09:36;14.07;;;8.50;;
43670;SDS011;29267;50.906;7.248;2024-01-30T12:12:02;28.17;;;16.88;;
43670;SDS011;29267;50.906;7.248;2024-01-30T12:14:28;22.38;;;10.52;;
43670;SDS011;29267;50.906;7.248;2024-01-30T12:16:54;28.35;;;14.15;;
43670;SDS011;29267;50.906;7.248;2024-01-30T12:19:25;29.17;;;7.90;;
43670;SDS011;29267;50.906;7.248;2024-01-30T12:21:57;12.50;;;5.40;;
43670;SDS011;29267;50.906;7.248;2024-01-30T12:24:24;8.70;;;4.68;;
43670;SDS011;29267;50.906;7.248;2024-01-30T12:26:51;12.73;;;7.07;;
43670;SDS011;29267;50.906;7.248;2024-01-30T12:29:17;8.13;;;4.65;;
43670;SDS011;29267;50.906;7.248;2024-01-30T12:31:42;9.93;;;4.65;;
43670;SDS011;29267;50.906;7.248;2024-01-30T12:34:09;9.73;;;4.90;;
43670;SDS011;29267;50.906;7.248;2024-01-30T12:36:34;14.20;;;6.03;;
43670;SDS011;29267;50.906;7.248;2024-01-30T12:39:00;8.10;;;4.10;;
43670;SDS011;29267;50.906;7.248;2024-01-30T12:41:26;9.23;;;4.85;;
43670;SDS011;29267;50.906;7.248;2024-01-30T12:43:54;8.90;;;5.15;;
43670;SDS011;29267;50.906;7.248;2024-01-30T12:46:19;14.88;;;7.43;;
43670;SDS011;29267;50.906;7.248;2024-01-30T12:48:45;13.95;;;6.80;;
43670;SDS011;29267;50.906;7.248;2024-01-30T12:51:11;22.48;;;8.85;;
43670;SDS011;29267;50.906;7.248;2024-01-30T12:53:36;53.17;;;18.10;;
43670;SDS011;29267;50.906;7.248;2024-01-30T12:56:02;57.17;;;20.13;;
43670;SDS011;29267;50.906;7.248;2024-01-30T12:58:28;34.78;;;13.10;;
43670;SDS011;29267;50.906;7.248;2024-01-30T13:00:54;34.47;;;11.50;;
43670;SDS011;29267;50.906;7.248;2024-01-30T13:03:19;20.48;;;8.02;;
43670;SDS011;29267;50.906;7.248;2024-01-30T13:05:45;31.00;;;13.45;;
43670;SDS011;29267;50.906;7.248;2024-01-30T13:08:11;24.38;;;11.05;;
43670;SDS011;29267;50.906;7.248;2024-01-30T13:10:36;18.38;;;7.25;;
43670;SDS011;29267;50.906;7.248;2024-01-30T13:13:02;10.55;;;5.00;;
43670;SDS011;29267;50.906;7.248;2024-01-30T13:15:28;7.78;;;4.50;;
43670;SDS011;29267;50.906;7.248;2024-01-30T13:17:53;8.20;;;4.25;;
43670;SDS011;29267;50.906;7.248;2024-01-30T13:20:19;10.60;;;4.75;;
43670;SDS011;29267;50.906;7.248;2024-01-30T13:22:47;9.43;;;5.07;;
43670;SDS011;29267;50.906;7.248;2024-01-30T13:25:14;7.78;;;4.35;;
43670;SDS011;29267;50.906;7.248;2024-01-30T13:27:40;9.27;;;4.53;;
43670;SDS011;29267;50.906;7.248;2024-01-30T13:30:06;7.78;;;4.28;;
43670;SDS011;29267;50.906;7.248;2024-01-30T13:32:36;10.57;;;5.10;;
43670;SDS011;29267;50.906;7.248;2024-01-30T13:35:02;12.10;;;5.60;;
43670;SDS011;29267;50.906;7.248;2024-01-30T13:37:28;15.00;;;6.38;;
43670;SDS011;29267;50.906;7.248;2024-01-30T13:39:54;23.02;;;10.57;;
43670;SDS011;29267;50.906;7.248;2024-01-30T13:42:21;20.77;;;9.10;;
43670;SDS011;29267;50.906;7.248;2024-01-30T13:44:47;30.77;;;10.77;;
43670;SDS011;29267;50.906;7.248;2024-01-30T13:47:12;32.97;;;10.98;;
43670;SDS011;29267;50.906;7.248;2024-01-30T13:49:38;29.00;;;10.32;;
43670;SDS011;29267;50.906;7.248;2024-01-30T13:52:03;44.13;;;16.35;;
43670;SDS011;29267;50.906;7.248;2024-01-30T13:54:29;27.77;;;11.68;;
43670;SDS011;29267;50.906;7.248;2024-01-30T13:56:55;23.08;;;8.73;;
43670;SDS011;29267;50.906;7.248;2024-01-30T13:59:22;23.73;;;10.45;;
43670;SDS011;29267;50.906;7.248;2024-01-30T14:01:50;20.55;;;8.60;;
43670;SDS011;29267;50.906;7.248;2024-01-30T14:04:16;14.70;;;7.60;;
43670;SDS011;29267;50.906;7.248;2024-01-30T14:06:42;10.05;;;5.60;;
43670;SDS011;29267;50.906;7.248;2024-01-30T14:09:08;50.05;;;20.73;;
43670;SDS011;29267;50.906;7.248;2024-01-30T14:11:33;27.77;;;12.43;;
43670;SDS011;29267;50.906;7.248;2024-01-30T14:13:59;29.80;;;13.90;;
43670;SDS011;29267;50.906;7.248;2024-01-30T14:16:24;31.13;;;14.18;;
43670;SDS011;29267;50.906;7.248;2024-01-30T14:18:50;26.52;;;10.25;;
43670;SDS011;29267;50.906;7.248;2024-01-30T14:21:16;19.27;;;10.48;;
43670;SDS011;29267;50.906;7.248;2024-01-30T14:23:41;33.80;;;15.93;;
43670;SDS011;29267;50.906;7.248;2024-01-30T14:26:07;24.80;;;10.45;;
43670;SDS011;29267;50.906;7.248;2024-01-30T14:28:32;19.48;;;11.02;;
43670;SDS011;29267;50.906;7.248;2024-01-30T14:30:58;27.23;;;13.48;;
43670;SDS011;29267;50.906;7.248;2024-01-30T14:33:25;50.83;;;22.38;;
43670;SDS011;29267;50.906;7.248;2024-01-30T14:35:50;54.03;;;23.95;;
43670;SDS011;29267;50.906;7.248;2024-01-30T14:38:16;57.80;;;27.70;;
43670;SDS011;29267;50.906;7.248;2024-01-30T14:40:42;41.78;;;19.33;;
43670;SDS011;29267;50.906;7.248;2024-01-30T14:43:07;41.95;;;17.70;;
43670;SDS011;29267;50.906;7.248;2024-01-30T14:45:33;31.20;;;14.98;;